Time;durP1;ratioP1;P1;durP2;ratioP2;P2;SDS_P1;SDS_P2;PMS_P1;PMS_P2;Temp;Humidity;BMP_temperature;BMP_pressure;BME280_temperature;BME280_humidity;BME280_pressure;Samples;Min_cycle;Max_cycle;Signal;HPM_P1;HPM_P2
2022/06/20 00:01:36;;;;;;;0.88;0.68;;;;;;;;;;5101683;28;20023;-89
2022/06/20 00:04:01;;;;;;;0.60;0.60;;;;;;;;;;5090983;28;20030;-87
2022/06/20 00:06:27;;;;;;;0.85;0.43;;;;;;;;;;5111434;28;20110;-87
2022/06/20 00:08:53;;;;;;;0.60;0.60;;;;;;;;;;5111017;28;20085;-87
2022/06/20 00:11:21;;;;;;;1.20;0.68;;;;;;;;;;5111283;28;20019;-85
2022/06/20 00:13:51;;;;;;;1.65;0.55;;;;;;;;;;5111154;28;20027;-85
2022/06/20 00:16:19;;;;;;;0.68;0.60;;;;;;;;;;5092789;28;20024;-87
2022/06/20 00:18:46;;;;;;;0.93;0.63;;;;;;;;;;5093083;28;20437;-87
2022/06/20 00:21:13;;;;;;;0.60;0.60;;;;;;;;;;5103702;28;20490;-87
2022/06/20 00:23:39;;;;;;;0.50;0.50;;;;;;;;;;5092890;28;20035;-87
2022/06/20 00:26:05;;;;;;;0.60;0.60;;;;;;;;;;5111149;28;20480;-87
2022/06/20 00:28:31;;;;;;;0.55;0.55;;;;;;;;;;5106835;28;20085;-88
2022/06/20 00:30:57;;;;;;;0.60;0.60;;;;;;;;;;5110150;28;20447;-87
2022/06/20 00:33:23;;;;;;;0.95;0.60;;;;;;;;;;5110228;28;20106;-87
2022/06/20 00:35:48;;;;;;;0.40;0.40;;;;;;;;;;5092120;28;20158;-85
2022/06/20 00:38:18;;;;;;;0.52;0.50;;;;;;;;;;5110353;28;20043;-86
2022/06/20 00:40:48;;;;;;;1.25;0.70;;;;;;;;;;5108925;28;20023;-87
2022/06/20 00:43:19;;;;;;;1.25;0.50;;;;;;;;;;5109870;28;20023;-88
2022/06/20 00:45:49;;;;;;;1.05;0.60;;;;;;;;;;5113385;28;20027;-88
2022/06/20 00:48:38;;;;;;;0.73;0.52;;;;;;;;;;5095547;28;20069;-87
2022/06/20 00:51:28;;;;;;;0.75;0.50;;;;;;;;;;5111669;28;20122;-86
2022/06/20 00:54:02;;;;;;;0.65;0.30;;;;;;;;;;5109242;28;20459;-86
2022/06/20 00:56:41;;;;;;;1.17;0.60;;;;;;;;;;5095470;28;20122;-87
2022/06/20 00:59:12;;;;;;;1.38;0.50;;;;;;;;;;5130105;27;20065;-86
2022/06/20 01:01:40;;;;;;;0.50;0.50;;;;;;;;;;5108126;28;20110;-86
2022/06/20 01:04:17;;;;;;;0.50;0.47;;;;;;;;;;5094970;28;20031;-86
2022/06/20 01:06:52;;;;;;;0.80;0.60;;;;;;;;;;5113075;28;20041;-86
2022/06/20 01:09:22;;;;;;;1.60;0.50;;;;;;;;;;5113119;28;20024;-84
2022/06/20 01:11:51;;;;;;;0.38;0.38;;;;;;;;;;5112983;28;20023;-87
2022/06/20 01:14:40;;;;;;;1.95;0.50;;;;;;;;;;5112404;28;20032;-85
2022/06/20 01:17:11;;;;;;;0.77;0.52;;;;;;;;;;5112597;28;21304;-90
2022/06/20 01:19:45;;;;;;;0.50;0.50;;;;;;;;;;5110628;28;20439;-86
2022/06/20 01:22:47;;;;;;;0.50;0.50;;;;;;;;;;5094320;28;20019;-86
2022/06/20 01:25:38;;;;;;;1.10;0.60;;;;;;;;;;5079646;28;20055;-86
2022/06/20 01:28:08;;;;;;;0.52;0.50;;;;;;;;;;5095374;28;20024;-87
2022/06/20 01:30:35;;;;;;;;;;;;;;;;;;5111776;28;20023;-88
2022/06/20 01:33:00;;;;;;;1.00;0.60;;;;;;;;;;5109877;28;19915;-87
2022/06/20 01:38:15;;;;;;;0.35;0.35;;;;;;;;;;5112504;28;20074;-85
2022/06/20 01:42:18;;;;;;;1.08;0.52;;;;;;;;;;5113025;28;20107;-87
2022/06/20 01:43:30;;;;;;;0.52;0.43;;;;;;;;;;5112278;28;20032;-86
2022/06/20 01:45:58;;;;;;;0.50;0.50;;;;;;;;;;5111246;28;20379;-84
2022/06/20 01:48:27;;;;;;;0.52;0.50;;;;;;;;;;5112912;28;20034;-87
2022/06/20 01:50:52;;;;;;;0.45;0.40;;;;;;;;;;5108048;28;20028;-88
2022/06/20 01:53:22;;;;;;;0.50;0.50;;;;;;;;;;5108975;28;20031;-88
2022/06/20 01:55:50;;;;;;;;;;;;;;;;;;5112838;28;20172;-85
2022/06/20 01:58:22;;;;;;;0.50;0.50;;;;;;;;;;5094094;28;19988;-90
2022/06/20 02:00:47;;;;;;;0.45;0.45;;;;;;;;;;5106879;28;20031;-87
2022/06/20 02:03:17;;;;;;;0.50;0.50;;;;;;;;;;5113150;28;20136;-87
2022/06/20 02:05:45;;;;;;;0.50;0.50;;;;;;;;;;5109061;28;20507;-87
2022/06/20 02:08:14;;;;;;;0.57;0.57;;;;;;;;;;5094960;28;20031;-87
2022/06/20 02:10:56;;;;;;;0.43;0.40;;;;;;;;;;5109783;28;20028;-88
2022/06/20 02:13:24;;;;;;;0.40;0.40;;;;;;;;;;5093598;28;20119;-86
2022/06/20 02:15:53;;;;;;;1.95;0.60;;;;;;;;;;5112499;28;20833;-90
2022/06/20 02:18:20;;;;;;;0.70;0.55;;;;;;;;;;5112529;28;20024;-91
2022/06/20 02:20:50;;;;;;;1.75;0.50;;;;;;;;;;5107445;28;20027;-86
2022/06/20 02:23:19;;;;;;;0.52;0.52;;;;;;;;;;5107561;28;20028;-91
2022/06/20 02:25:49;;;;;;;0.47;0.47;;;;;;;;;;5112375;28;20472;-89
2022/06/20 02:28:21;;;;;;;1.40;0.57;;;;;;;;;;5112145;28;20046;-87
2022/06/20 02:30:47;;;;;;;0.98;0.60;;;;;;;;;;5112049;28;20380;-88
2022/06/20 02:33:25;;;;;;;0.50;0.50;;;;;;;;;;5094036;28;20031;-87
2022/06/20 02:35:55;;;;;;;0.90;0.57;;;;;;;;;;5094521;28;20030;-89
2022/06/20 02:38:21;;;;;;;3.17;0.43;;;;;;;;;;5109249;28;20049;-87
2022/06/20 02:40:49;;;;;;;1.02;0.52;;;;;;;;;;5105643;28;20024;-90
2022/06/20 02:43:21;;;;;;;1.13;0.55;;;;;;;;;;5094148;28;20020;-90
2022/06/20 02:45:47;;;;;;;0.57;0.50;;;;;;;;;;5094228;28;20023;-89
2022/06/20 02:48:15;;;;;;;0.68;0.50;;;;;;;;;;5112353;28;20028;-86
2022/06/20 02:50:46;;;;;;;1.60;0.60;;;;;;;;;;5112145;28;20043;-87
2022/06/20 02:53:40;;;;;;;0.40;0.40;;;;;;;;;;5093714;28;20015;-91
2022/06/20 02:56:09;;;;;;;1.95;0.70;;;;;;;;;;5110037;28;20115;-87
2022/06/20 02:58:38;;;;;;;0.60;0.50;;;;;;;;;;5107126;28;20024;-87
2022/06/20 03:01:16;;;;;;;0.55;0.55;;;;;;;;;;5091355;28;20036;-86
2022/06/20 03:03:46;;;;;;;1.35;0.60;;;;;;;;;;5090892;28;20023;-86
2022/06/20 03:06:27;;;;;;;0.50;0.50;;;;;;;;;;5111341;28;20031;-84
2022/06/20 03:08:55;;;;;;;0.50;0.50;;;;;;;;;;5091906;28;20058;-87
2022/06/20 03:11:22;;;;;;;0.50;0.50;;;;;;;;;;5093430;28;20031;-84
2022/06/20 03:13:48;;;;;;;0.50;0.50;;;;;;;;;;5110860;28;20047;-87
2022/06/20 03:16:14;;;;;;;0.60;0.60;;;;;;;;;;5093051;28;20019;-86
2022/06/20 03:18:43;;;;;;;0.70;0.57;;;;;;;;;;5099892;28;20479;-85
2022/06/20 03:21:09;;;;;;;0.40;0.40;;;;;;;;;;5091939;28;20027;-89
2022/06/20 03:23:36;;;;;;;0.45;0.43;;;;;;;;;;5093779;28;20023;-84
2022/06/20 03:26:04;;;;;;;1.23;0.80;;;;;;;;;;5110517;28;20032;-85
2022/06/20 03:28:31;;;;;;;1.00;0.80;;;;;;;;;;5109423;28;20070;-87
2022/06/20 03:30:58;;;;;;;0.50;0.50;;;;;;;;;;5092988;28;20411;-84
2022/06/20 03:33:24;;;;;;;0.82;0.70;;;;;;;;;;5092441;28;20030;-85
2022/06/20 03:36:04;;;;;;;0.85;0.70;;;;;;;;;;5107167;28;20023;-86
2022/06/20 03:38:30;;;;;;;0.63;0.63;;;;;;;;;;5090363;28;20039;-84
2022/06/20 03:40:55;;;;;;;1.17;0.60;;;;;;;;;;5111336;28;20536;-86
2022/06/20 03:43:25;;;;;;;0.50;0.50;;;;;;;;;;5091353;28;20024;-87
2022/06/20 03:45:57;;;;;;;0.90;0.80;;;;;;;;;;5093266;28;20032;-85
2022/06/20 03:48:31;;;;;;;0.55;0.55;;;;;;;;;;5110420;28;20070;-88
2022/06/20 03:51:14;;;;;;;0.70;0.70;;;;;;;;;;5105641;28;20035;-87
2022/06/20 03:54:02;;;;;;;0.88;0.80;;;;;;;;;;5109998;28;20023;-84
2022/06/20 03:56:34;;;;;;;0.90;0.70;;;;;;;;;;5092426;28;20137;-86
2022/06/20 03:59:22;;;;;;;1.48;0.70;;;;;;;;;;5110377;28;20437;-86
2022/06/20 04:02:03;;;;;;;1.63;1.10;;;;;;;;;;5091782;28;20090;-84
2022/06/20 04:04:31;;;;;;;1.20;0.93;;;;;;;;;;5092798;28;20039;-87
2022/06/20 04:07:06;;;;;;;1.98;1.08;;;;;;;;;;5090617;28;20019;-87
2022/06/20 04:12:42;;;;;;;1.13;0.90;;;;;;;;;;5109005;28;20046;-86
2022/06/20 04:15:16;;;;;;;1.60;1.08;;;;;;;;;;5097218;28;20072;-87
2022/06/20 04:20:40;;;;;;;2.20;0.90;;;;;;;;;;5114091;28;20054;-89
2022/06/20 04:23:12;;;;;;;1.85;1.10;;;;;;;;;;5090182;28;20030;-87
2022/06/20 04:25:49;;;;;;;1.60;0.98;;;;;;;;;;5109275;28;20028;-88
2022/06/20 04:28:31;;;;;;;1.10;1.00;;;;;;;;;;5113007;28;20034;-87
2022/06/20 04:31:19;;;;;;;1.05;0.95;;;;;;;;;;5113409;28;20024;-85
2022/06/20 04:34:03;;;;;;;2.50;1.60;;;;;;;;;;5112914;28;20539;-88
2022/06/20 04:36:35;;;;;;;1.88;1.30;;;;;;;;;;5112011;28;20364;-87
2022/06/20 04:39:17;;;;;;;2.47;1.70;;;;;;;;;;5092130;28;20559;-86
2022/06/20 04:42:18;;;;;;;2.30;1.45;;;;;;;;;;5111643;28;20043;-88
2022/06/20 04:44:51;;;;;;;1.80;1.30;;;;;;;;;;5107513;28;20028;-88
2022/06/20 04:47:29;;;;;;;1.00;0.90;;;;;;;;;;5095725;28;20043;-86
2022/06/20 04:49:54;;;;;;;2.10;1.17;;;;;;;;;;5095362;28;20092;-86
2022/06/20 04:52:25;;;;;;;1.90;1.17;;;;;;;;;;5111110;28;20456;-90
2022/06/20 04:54:50;;;;;;;1.95;1.20;;;;;;;;;;5109817;28;20042;-87
2022/06/20 04:57:16;;;;;;;1.55;1.42;;;;;;;;;;5113028;28;20016;-84
2022/06/20 04:59:42;;;;;;;1.50;1.30;;;;;;;;;;5110306;28;20122;-85
2022/06/20 05:02:16;;;;;;;3.22;1.40;;;;;;;;;;5112678;28;20483;-87
2022/06/20 05:04:43;;;;;;;2.67;1.40;;;;;;;;;;5110087;28;20467;-87
2022/06/20 05:07:36;;;;;;;1.65;1.30;;;;;;;;;;5090214;28;20043;-88
2022/06/20 05:10:16;;;;;;;2.15;1.27;;;;;;;;;;5110242;28;20044;-84
2022/06/20 05:12:50;;;;;;;2.35;1.50;;;;;;;;;;5094757;28;20433;-86
2022/06/20 05:15:15;;;;;;;2.03;1.35;;;;;;;;;;5093918;28;20119;-84
2022/06/20 05:17:43;;;;;;;1.60;1.30;;;;;;;;;;5105316;28;20102;-83
2022/06/20 05:20:22;;;;;;;2.40;1.58;;;;;;;;;;5089804;28;20475;-84
2022/06/20 05:23:11;;;;;;;1.83;1.40;;;;;;;;;;5112486;28;20027;-86
2022/06/20 05:25:38;;;;;;;1.65;1.50;;;;;;;;;;5091226;28;20479;-84
2022/06/20 05:28:08;;;;;;;1.95;1.67;;;;;;;;;;5109263;28;20035;-85
2022/06/20 05:30:35;;;;;;;1.83;1.50;;;;;;;;;;5112857;28;20392;-85
2022/06/20 05:33:19;;;;;;;1.58;1.38;;;;;;;;;;5111810;28;20027;-84
2022/06/20 05:35:54;;;;;;;2.20;1.20;;;;;;;;;;5094988;28;20061;-83
2022/06/20 05:38:32;;;;;;;1.70;1.40;;;;;;;;;;5095187;28;20043;-86
2022/06/20 05:41:04;;;;;;;2.83;1.23;;;;;;;;;;5095067;28;20467;-85
2022/06/20 05:43:31;;;;;;;2.42;1.40;;;;;;;;;;5110274;28;20023;-84
2022/06/20 05:46:04;;;;;;;1.50;1.20;;;;;;;;;;5091182;28;20104;-86
2022/06/20 05:48:48;;;;;;;1.40;1.30;;;;;;;;;;5094422;28;20121;-91
2022/06/20 05:51:16;;;;;;;1.48;1.30;;;;;;;;;;5086531;28;20383;-86
2022/06/20 05:53:51;;;;;;;1.83;1.42;;;;;;;;;;5112152;28;20051;-85
2022/06/20 05:56:19;;;;;;;1.80;1.35;;;;;;;;;;5092775;28;20019;-82
2022/06/20 05:58:46;;;;;;;1.80;1.40;;;;;;;;;;5112440;28;20031;-85
2022/06/20 06:01:16;;;;;;;1.50;1.40;;;;;;;;;;5112521;28;20030;-83
2022/06/20 06:03:44;;;;;;;;;;;;;;;;;;5108562;28;20050;-81
2022/06/20 06:06:19;;;;;;;4.32;1.70;;;;;;;;;;5108519;28;19912;-84
2022/06/20 06:09:00;;;;;;;1.52;1.40;;;;;;;;;;5109758;28;20759;-82
2022/06/20 06:11:54;;;;;;;2.47;1.45;;;;;;;;;;5101503;28;20388;-81
2022/06/20 06:14:39;;;;;;;1.70;1.30;;;;;;;;;;5093354;28;20084;-80
2022/06/20 06:17:12;;;;;;;1.95;1.40;;;;;;;;;;5084469;28;20069;-81
2022/06/20 06:19:48;;;;;;;2.00;1.30;;;;;;;;;;5109034;27;20102;-81
2022/06/20 06:22:21;;;;;;;2.53;1.50;;;;;;;;;;5108677;27;21600;-83
2022/06/20 06:25:28;;;;;;;2.78;1.58;;;;;;;;;;5085991;28;20031;-86
2022/06/20 06:27:58;;;;;;;1.88;1.33;;;;;;;;;;5111358;28;20031;-82
2022/06/20 06:30:29;;;;;;;1.40;1.30;;;;;;;;;;5111127;28;20024;-83
2022/06/20 06:33:06;;;;;;;2.13;1.50;;;;;;;;;;5111218;28;20031;-83
2022/06/20 06:35:55;;;;;;;1.58;1.15;;;;;;;;;;5104369;28;20023;-83
2022/06/20 06:38:39;;;;;;;1.63;1.40;;;;;;;;;;5108860;28;20040;-83
2022/06/20 06:41:13;;;;;;;2.47;1.00;;;;;;;;;;5087523;28;20023;-84
2022/06/20 06:43:43;;;;;;;1.55;1.13;;;;;;;;;;5108075;28;20146;-83
2022/06/20 06:46:33;;;;;;;2.80;1.17;;;;;;;;;;5106576;28;20030;-83
2022/06/20 06:49:17;;;;;;;2.17;1.33;;;;;;;;;;5077994;28;20367;-83
2022/06/20 06:52:10;;;;;;;1.90;1.05;;;;;;;;;;5108716;28;20387;-83
2022/06/20 06:54:41;;;;;;;1.25;1.10;;;;;;;;;;5110293;28;20023;-86
2022/06/20 06:57:24;;;;;;;1.60;1.00;;;;;;;;;;5106051;28;20417;-82
2022/06/20 07:00:15;;;;;;;1.25;1.05;;;;;;;;;;5109382;28;20405;-81
2022/06/20 07:02:45;;;;;;;1.42;1.00;;;;;;;;;;5075191;28;20043;-81
2022/06/20 07:05:25;;;;;;;1.30;1.00;;;;;;;;;;5091677;28;20475;-83
2022/06/20 07:08:12;;;;;;;0.80;0.80;;;;;;;;;;5109399;28;20119;-82
2022/06/20 07:11:01;;;;;;;2.17;1.92;;;;;;;;;;5108415;28;20470;-83
2022/06/20 07:13:53;;;;;;;3.50;2.20;;;;;;;;;;5107494;28;20023;-82
2022/06/20 07:17:03;;;;;;;4.75;1.00;;;;;;;;;;5083717;28;20046;-83
2022/06/20 07:19:33;;;;;;;1.38;0.82;;;;;;;;;;5110774;28;20027;-81
2022/06/20 07:21:59;;;;;;;2.20;0.73;;;;;;;;;;5110641;28;20023;-81
2022/06/20 07:24:28;;;;;;;1.00;0.90;;;;;;;;;;5105051;28;20034;-81
2022/06/20 07:27:06;;;;;;;5.07;1.08;;;;;;;;;;5091702;28;20028;-81
2022/06/20 07:29:44;;;;;;;1.17;0.85;;;;;;;;;;5108028;28;20544;-82
2022/06/20 07:32:15;;;;;;;1.15;0.77;;;;;;;;;;5107720;28;20023;-82
2022/06/20 07:34:43;;;;;;;4.72;3.97;;;;;;;;;;5090355;28;20157;-82
2022/06/20 07:37:17;;;;;;;7.00;6.40;;;;;;;;;;5107875;28;20098;-81
2022/06/20 07:40:08;;;;;;;3.25;1.38;;;;;;;;;;5108964;28;20527;-83
2022/06/20 07:42:40;;;;;;;0.90;0.70;;;;;;;;;;5106950;28;20031;-83
2022/06/20 07:45:13;;;;;;;3.10;1.02;;;;;;;;;;5091205;28;20027;-82
2022/06/20 07:47:42;;;;;;;1.20;0.80;;;;;;;;;;5103835;28;20059;-83
2022/06/20 07:50:14;;;;;;;1.25;0.90;;;;;;;;;;5114292;28;20036;-82
2022/06/20 07:52:48;;;;;;;2.65;0.80;;;;;;;;;;5113079;28;20031;-82
2022/06/20 07:55:18;;;;;;;1.27;0.90;;;;;;;;;;5091953;28;20536;-81
2022/06/20 07:57:50;;;;;;;2.13;0.73;;;;;;;;;;5113034;28;20020;-82
2022/06/20 08:00:22;;;;;;;1.27;0.70;;;;;;;;;;5111605;28;20070;-80
2022/06/20 08:02:59;;;;;;;2.70;0.90;;;;;;;;;;5111764;28;20080;-81
2022/06/20 08:05:28;;;;;;;0.60;0.60;;;;;;;;;;5096488;28;20395;-81
2022/06/20 08:08:01;;;;;;;1.58;1.30;;;;;;;;;;5113898;28;20024;-81
2022/06/20 08:10:34;;;;;;;3.95;3.63;;;;;;;;;;5110360;28;20067;-80
2022/06/20 08:13:12;;;;;;;1.40;0.73;;;;;;;;;;5096409;28;20027;-81
2022/06/20 08:15:46;;;;;;;1.10;0.65;;;;;;;;;;5109274;28;20036;-82
2022/06/20 08:18:12;;;;;;;0.50;0.50;;;;;;;;;;5110065;28;20381;-84
2022/06/20 08:20:42;;;;;;;0.50;0.50;;;;;;;;;;5111241;28;20015;-82
2022/06/20 08:23:21;;;;;;;0.60;0.60;;;;;;;;;;5111049;28;20035;-82
2022/06/20 08:25:55;;;;;;;1.02;0.70;;;;;;;;;;5105748;28;20114;-84
2022/06/20 08:28:25;;;;;;;0.63;0.63;;;;;;;;;;5111762;27;20161;-80
2022/06/20 08:30:59;;;;;;;0.85;0.70;;;;;;;;;;5091910;28;20024;-80
2022/06/20 08:33:53;;;;;;;0.52;0.47;;;;;;;;;;5105267;28;20547;-81
2022/06/20 08:36:25;;;;;;;1.30;0.73;;;;;;;;;;5105482;28;20054;-82
2022/06/20 08:39:02;;;;;;;1.75;0.80;;;;;;;;;;5110195;28;20097;-82
2022/06/20 08:41:42;;;;;;;1.30;0.70;;;;;;;;;;5104665;28;20039;-81
2022/06/20 08:44:14;;;;;;;0.88;0.50;;;;;;;;;;5094924;28;20084;-81
2022/06/20 08:46:45;;;;;;;0.70;0.60;;;;;;;;;;5109817;28;20096;-81
2022/06/20 08:49:13;;;;;;;2.15;0.80;;;;;;;;;;5106694;27;20031;-83
2022/06/20 08:52:24;;;;;;;1.20;0.90;;;;;;;;;;5111882;28;20811;-82
2022/06/20 08:55:16;;;;;;;0.60;0.55;;;;;;;;;;5110631;27;20016;-82
2022/06/20 08:57:42;;;;;;;0.50;0.50;;;;;;;;;;5109429;28;20031;-82
2022/06/20 09:00:17;;;;;;;2.35;0.50;;;;;;;;;;5107632;28;20422;-82
2022/06/20 09:03:06;;;;;;;0.43;0.43;;;;;;;;;;5109366;28;20028;-81
2022/06/20 09:05:38;;;;;;;2.50;0.55;;;;;;;;;;5111213;28;20039;-82
2022/06/20 09:08:36;;;;;;;0.25;0.25;;;;;;;;;;5109489;28;20479;-82
2022/06/20 09:11:20;;;;;;;0.47;0.47;;;;;;;;;;5111211;27;20397;-82
2022/06/20 09:13:55;;;;;;;0.45;0.43;;;;;;;;;;5110938;28;20026;-82
2022/06/20 09:16:44;;;;;;;1.75;0.45;;;;;;;;;;5108444;28;20494;-81
2022/06/20 09:19:24;;;;;;;2.33;0.50;;;;;;;;;;5109281;28;20038;-82
2022/06/20 09:22:01;;;;;;;1.90;0.60;;;;;;;;;;5115626;27;20027;-83
2022/06/20 09:24:29;;;;;;;1.27;0.40;;;;;;;;;;5113602;27;20028;-83
2022/06/20 09:27:18;;;;;;;0.95;0.60;;;;;;;;;;5111779;28;20036;-82
2022/06/20 09:29:49;;;;;;;0.65;0.40;;;;;;;;;;5109203;28;20077;-82
2022/06/20 09:33:01;;;;;;;1.00;0.32;;;;;;;;;;5110886;28;20034;-82
2022/06/20 09:35:48;;;;;;;0.55;0.40;;;;;;;;;;5112842;28;20110;-82
2022/06/20 09:38:32;;;;;;;0.40;0.40;;;;;;;;;;5111001;28;20117;-84
2022/06/20 09:41:22;;;;;;;0.40;0.40;;;;;;;;;;5108178;28;20020;-84
2022/06/20 09:44:10;;;;;;;0.30;0.30;;;;;;;;;;5109456;28;20038;-81
2022/06/20 09:46:57;;;;;;;1.13;0.50;;;;;;;;;;5108353;28;20028;-81
2022/06/20 09:49:44;;;;;;;1.02;0.50;;;;;;;;;;5108813;28;20047;-85
2022/06/20 09:52:23;;;;;;;0.77;0.32;;;;;;;;;;5109704;27;20034;-82
2022/06/20 09:55:13;;;;;;;0.28;0.28;;;;;;;;;;5092369;28;20383;-82
2022/06/20 09:58:00;;;;;;;0.55;0.38;;;;;;;;;;5109621;28;20031;-82
2022/06/20 10:00:34;;;;;;;0.35;0.35;;;;;;;;;;5103726;28;20036;-81
2022/06/20 10:03:18;;;;;;;0.63;0.30;;;;;;;;;;5107866;28;20038;-82
2022/06/20 10:06:14;;;;;;;1.00;0.40;;;;;;;;;;5105700;28;20047;-81
2022/06/20 10:08:48;;;;;;;0.60;0.30;;;;;;;;;;5092872;28;20468;-82
2022/06/20 10:11:44;;;;;;;1.48;0.40;;;;;;;;;;5107859;28;20490;-82
2022/06/20 10:14:26;;;;;;;0.93;0.32;;;;;;;;;;5087613;28;20046;-81
2022/06/20 10:17:27;;;;;;;0.40;0.40;;;;;;;;;;5107883;28;20084;-83
2022/06/20 10:20:17;;;;;;;0.30;0.30;;;;;;;;;;5108507;28;20038;-83
2022/06/20 10:23:16;;;;;;;0.32;0.28;;;;;;;;;;5107583;28;20087;-81
2022/06/20 10:25:47;;;;;;;1.63;0.30;;;;;;;;;;5108378;28;20408;-79
2022/06/20 10:28:32;;;;;;;2.08;0.50;;;;;;;;;;5107342;28;20031;-81
2022/06/20 10:31:31;;;;;;;2.65;0.50;;;;;;;;;;5096154;28;20054;-80
2022/06/20 10:34:00;;;;;;;;;;;;;;;;;;5088791;28;20031;-81
2022/06/20 10:37:00;;;;;;;2.35;0.30;;;;;;;;;;5110097;28;19922;-81
2022/06/20 10:39:44;;;;;;;0.20;0.20;;;;;;;;;;5095245;28;20326;-80
2022/06/20 10:42:31;;;;;;;1.20;0.40;;;;;;;;;;5109613;28;20020;-80
2022/06/20 10:45:15;;;;;;;0.40;0.30;;;;;;;;;;5108484;28;20692;-80
2022/06/20 10:48:08;;;;;;;1.83;0.60;;;;;;;;;;5107819;28;20035;-80
2022/06/20 10:50:58;;;;;;;0.47;0.30;;;;;;;;;;5104886;28;20543;-80
2022/06/20 10:53:32;;;;;;;3.35;0.50;;;;;;;;;;5124389;27;20035;-80
2022/06/20 10:56:21;;;;;;;0.30;0.30;;;;;;;;;;5106809;28;20024;-80
2022/06/20 10:59:00;;;;;;;0.30;0.30;;;;;;;;;;5107404;28;20023;-83
2022/06/20 11:01:46;;;;;;;0.65;0.30;;;;;;;;;;5106928;28;20507;-82
2022/06/20 11:04:32;;;;;;;0.50;0.50;;;;;;;;;;5108672;28;20463;-81
2022/06/20 11:07:28;;;;;;;0.60;0.35;;;;;;;;;;5106878;28;20028;-81
2022/06/20 11:10:27;;;;;;;1.80;0.40;;;;;;;;;;5107979;28;20028;-79
2022/06/20 11:12:59;;;;;;;0.38;0.38;;;;;;;;;;5108055;28;20106;-79
2022/06/20 11:15:25;;;;;;;0.80;0.43;;;;;;;;;;5109220;28;20387;-82
2022/06/20 11:18:02;;;;;;;0.70;0.45;;;;;;;;;;5106744;28;20016;-80
2022/06/20 11:20:39;;;;;;;0.57;0.40;;;;;;;;;;5111534;28;20479;-80
2022/06/20 11:23:18;;;;;;;0.57;0.32;;;;;;;;;;5108366;28;20031;-80
2022/06/20 11:25:57;;;;;;;1.35;0.30;;;;;;;;;;5109424;28;20731;-79
2022/06/20 11:28:29;;;;;;;;;;;;;;;;;;5107209;28;20023;-80
2022/06/20 11:31:07;;;;;;;1.15;0.50;;;;;;;;;;5111349;28;19912;-80
2022/06/20 11:34:32;;;;;;;0.30;0.30;;;;;;;;;;5111362;28;20028;-81
2022/06/20 11:37:27;;;;;;;0.30;0.30;;;;;;;;;;5059683;28;20063;-80
2022/06/20 11:40:14;;;;;;;0.55;0.47;;;;;;;;;;5110350;28;20042;-79
2022/06/20 11:42:51;;;;;;;0.28;0.28;;;;;;;;;;5111202;28;20483;-80
2022/06/20 11:45:40;;;;;;;1.05;0.50;;;;;;;;;;5110395;28;20480;-80
2022/06/20 11:48:24;;;;;;;1.92;0.60;;;;;;;;;;5110360;28;20161;-79
2022/06/20 11:51:09;;;;;;;1.85;0.32;;;;;;;;;;5111264;28;20027;-81
2022/06/20 11:54:02;;;;;;;5.30;0.70;;;;;;;;;;5110600;28;20024;-81
2022/06/20 11:56:46;;;;;;;0.20;0.20;;;;;;;;;;5106989;28;20076;-81
2022/06/20 11:59:44;;;;;;;0.40;0.30;;;;;;;;;;5110688;28;20035;-81
2022/06/20 12:02:31;;;;;;;0.20;0.20;;;;;;;;;;5042136;28;20039;-80
2022/06/20 12:05:26;;;;;;;0.20;0.20;;;;;;;;;;5110845;28;20049;-81
2022/06/20 12:08:01;;;;;;;0.52;0.38;;;;;;;;;;5099673;28;20050;-81
2022/06/20 12:11:00;;;;;;;0.30;0.30;;;;;;;;;;5110912;28;20081;-82
2022/06/20 12:13:53;;;;;;;0.43;0.20;;;;;;;;;;5102678;28;20043;-80
2022/06/20 12:16:41;;;;;;;0.50;0.40;;;;;;;;;;5109172;28;20023;-81
2022/06/20 12:25:14;;;;;;;0.15;0.15;;;;;;;;;;5103254;28;20035;-83
2022/06/20 12:27:39;;;;;;;0.30;0.30;;;;;;;;;;5106998;28;20030;-79
2022/06/20 12:30:11;;;;;;;0.47;0.10;;;;;;;;;;5081196;28;20028;-81
2022/06/20 12:32:38;;;;;;;0.43;0.40;;;;;;;;;;5105673;28;20047;-82
2022/06/20 12:35:20;;;;;;;0.22;0.20;;;;;;;;;;5107710;28;20027;-82
2022/06/20 12:37:56;;;;;;;0.98;0.40;;;;;;;;;;5109061;28;20480;-81
2022/06/20 12:40:28;;;;;;;0.75;0.20;;;;;;;;;;5106382;28;20051;-82
2022/06/20 12:43:01;;;;;;;0.35;0.28;;;;;;;;;;5108341;28;20030;-80
2022/06/20 12:45:29;;;;;;;0.57;0.30;;;;;;;;;;5108375;28;20028;-80
2022/06/20 12:48:06;;;;;;;0.30;0.30;;;;;;;;;;5105516;28;20491;-81
2022/06/20 12:51:09;;;;;;;0.93;0.40;;;;;;;;;;5090796;28;20123;-81
2022/06/20 12:53:53;;;;;;;1.85;0.40;;;;;;;;;;5093845;28;20028;-80
2022/06/20 12:56:59;;;;;;;0.50;0.30;;;;;;;;;;5111513;28;20031;-86
2022/06/20 12:59:34;;;;;;;0.65;0.40;;;;;;;;;;5110983;28;20034;-83
2022/06/20 13:02:13;;;;;;;0.32;0.30;;;;;;;;;;5112192;28;20106;-85
2022/06/20 13:05:00;;;;;;;1.08;0.40;;;;;;;;;;5094947;28;20387;-84
2022/06/20 13:07:56;;;;;;;0.75;0.50;;;;;;;;;;5109612;28;20047;-85
2022/06/20 13:10:51;;;;;;;0.30;0.30;;;;;;;;;;5109761;28;20027;-85
2022/06/20 13:13:45;;;;;;;0.40;0.32;;;;;;;;;;5107396;28;20421;-86
2022/06/20 13:16:32;;;;;;;0.32;0.22;;;;;;;;;;5109836;27;20494;-90
2022/06/20 13:19:32;;;;;;;0.67;0.30;;;;;;;;;;5108791;27;20102;-83
2022/06/20 13:22:16;;;;;;;0.30;0.30;;;;;;;;;;5050373;28;20033;-86
2022/06/20 13:24:50;;;;;;;0.35;0.30;;;;;;;;;;5101121;28;20074;-85
2022/06/20 13:27:35;;;;;;;0.40;0.40;;;;;;;;;;5090406;28;20020;-86
2022/06/20 13:30:12;;;;;;;1.00;0.30;;;;;;;;;;5106236;28;20027;-86
2022/06/20 13:32:46;;;;;;;1.42;0.32;;;;;;;;;;5111195;27;20383;-85
2022/06/20 13:35:26;;;;;;;0.30;0.30;;;;;;;;;;5089838;28;20028;-87
2022/06/20 13:38:20;;;;;;;0.40;0.40;;;;;;;;;;5094069;28;20035;-84
2022/06/20 13:40:54;;;;;;;1.60;0.35;;;;;;;;;;5110320;28;20459;-82
2022/06/20 13:43:32;;;;;;;0.75;0.43;;;;;;;;;;5110009;28;20024;-82
2022/06/20 13:46:20;;;;;;;0.30;0.30;;;;;;;;;;5109839;28;20028;-82
2022/06/20 13:48:56;;;;;;;0.40;0.30;;;;;;;;;;5107680;28;20019;-84
2022/06/20 13:51:29;;;;;;;0.47;0.30;;;;;;;;;;5109013;28;20022;-83
2022/06/20 13:54:16;;;;;;;0.30;0.30;;;;;;;;;;5102761;28;20024;-82
2022/06/20 13:57:04;;;;;;;1.98;0.40;;;;;;;;;;5103593;28;20581;-83
2022/06/20 13:59:44;;;;;;;0.82;0.40;;;;;;;;;;5113082;28;20650;-86
2022/06/20 14:02:27;;;;;;;1.75;0.43;;;;;;;;;;5108346;28;20115;-84
2022/06/20 14:04:53;;;;;;;0.40;0.40;;;;;;;;;;5110313;28;20360;-85
2022/06/20 14:07:25;;;;;;;0.77;0.40;;;;;;;;;;5112281;28;20665;-83
2022/06/20 14:09:53;;;;;;;0.98;0.32;;;;;;;;;;5104719;28;20824;-82
2022/06/20 14:12:30;;;;;;;0.30;0.30;;;;;;;;;;5098972;28;20723;-81
2022/06/20 14:15:04;;;;;;;1.25;0.38;;;;;;;;;;5102299;28;20031;-80
2022/06/20 14:17:33;;;;;;;0.40;0.35;;;;;;;;;;5099451;28;20186;-82
2022/06/20 14:20:21;;;;;;;3.85;0.93;;;;;;;;;;5108374;28;20353;-82
2022/06/20 14:22:49;;;;;;;0.50;0.40;;;;;;;;;;5102929;28;20486;-83
2022/06/20 14:25:27;;;;;;;0.40;0.40;;;;;;;;;;5084274;28;20391;-83
2022/06/20 14:27:55;;;;;;;0.50;0.40;;;;;;;;;;5108466;28;20055;-84
2022/06/20 14:30:31;;;;;;;0.20;0.20;;;;;;;;;;5109723;28;20023;-85
2022/06/20 14:33:22;;;;;;;1.05;0.30;;;;;;;;;;5108208;28;20027;-84
2022/06/20 14:35:59;;;;;;;0.52;0.30;;;;;;;;;;5091638;28;20072;-85
2022/06/20 14:38:31;;;;;;;0.30;0.30;;;;;;;;;;5109840;28;20040;-85
2022/06/20 14:41:02;;;;;;;0.30;0.30;;;;;;;;;;5109912;28;20039;-84
2022/06/20 14:43:41;;;;;;;0.50;0.32;;;;;;;;;;5092414;28;20031;-84
2022/06/20 14:46:22;;;;;;;0.50;0.43;;;;;;;;;;5108737;28;20031;-83
2022/06/20 14:49:20;;;;;;;0.30;0.30;;;;;;;;;;5106679;28;20076;-83
2022/06/20 14:51:55;;;;;;;0.50;0.30;;;;;;;;;;5057593;28;20043;-83
2022/06/20 14:54:33;;;;;;;0.50;0.30;;;;;;;;;;5111666;28;20030;-83
2022/06/20 14:57:18;;;;;;;0.55;0.30;;;;;;;;;;5107587;28;20424;-85
2022/06/20 14:59:43;;;;;;;0.30;0.30;;;;;;;;;;5110274;28;20034;-85
2022/06/20 15:02:25;;;;;;;0.60;0.43;;;;;;;;;;5088897;28;20031;-84
2022/06/20 15:04:57;;;;;;;0.50;0.50;;;;;;;;;;5109148;28;20053;-83
2022/06/20 15:07:34;;;;;;;0.68;0.45;;;;;;;;;;5107589;28;20532;-85
2022/06/20 15:10:22;;;;;;;1.98;0.52;;;;;;;;;;5105188;28;20409;-83
2022/06/20 15:12:53;;;;;;;0.85;0.40;;;;;;;;;;5109476;28;20020;-83
2022/06/20 15:15:34;;;;;;;0.38;0.38;;;;;;;;;;5110744;28;20068;-83
2022/06/20 15:18:23;;;;;;;0.40;0.40;;;;;;;;;;5108297;28;20034;-84
2022/06/20 15:20:57;;;;;;;0.35;0.35;;;;;;;;;;5110219;28;20493;-81
2022/06/20 15:23:35;;;;;;;0.52;0.50;;;;;;;;;;5109443;28;20089;-84
2022/06/20 15:26:08;;;;;;;0.30;0.30;;;;;;;;;;5104603;28;20059;-82
2022/06/20 15:28:43;;;;;;;0.40;0.40;;;;;;;;;;5108913;28;20098;-82
2022/06/20 15:31:15;;;;;;;0.80;0.80;;;;;;;;;;5109545;28;20050;-85
2022/06/20 15:33:45;;;;;;;2.83;2.58;;;;;;;;;;5088885;28;20020;-84
2022/06/20 15:36:30;;;;;;;4.13;3.80;;;;;;;;;;5108031;28;20080;-83
2022/06/20 15:39:21;;;;;;;0.75;0.60;;;;;;;;;;5090551;28;20039;-83
2022/06/20 15:44:57;;;;;;;0.50;0.50;;;;;;;;;;5105326;28;20054;-85
2022/06/20 15:47:52;;;;;;;5.35;4.95;;;;;;;;;;5105784;28;20027;-84
2022/06/20 15:50:24;;;;;;;3.55;3.25;;;;;;;;;;5090568;28;20498;-83
2022/06/20 15:53:29;;;;;;;0.63;0.60;;;;;;;;;;5104808;28;20031;-83
2022/06/20 15:56:08;;;;;;;0.85;0.57;;;;;;;;;;5037826;28;20032;-84
2022/06/20 15:58:49;;;;;;;0.45;0.40;;;;;;;;;;5097992;28;20028;-84
2022/06/20 16:01:26;;;;;;;0.40;0.40;;;;;;;;;;5103737;28;20495;-84
2022/06/20 16:04:05;;;;;;;0.45;0.45;;;;;;;;;;5105977;28;20024;-86
2022/06/20 16:06:43;;;;;;;0.77;0.50;;;;;;;;;;5105872;28;20565;-82